createdAt,value
2022-12-07T00:01:35.207Z,18.15
2022-12-07T00:04:06.233Z,17.23
2022-12-07T00:06:38.999Z,17.30
2022-12-07T00:09:08.454Z,16.33
2022-12-07T00:11:36.547Z,17.45
2022-12-07T00:14:08.434Z,17.95
2022-12-07T00:16:37.230Z,17.70
2022-12-07T00:19:05.988Z,17.10
2022-12-07T00:21:37.431Z,16.73
2022-12-07T00:24:07.199Z,18.35
2022-12-07T00:26:37.867Z,19.00
2022-12-07T00:29:09.763Z,18.45
2022-12-07T00:31:40.488Z,20.40
2022-12-07T00:34:08.995Z,18.90
2022-12-07T00:36:38.381Z,19.85
2022-12-07T00:39:06.301Z,19.08
2022-12-07T00:41:34.412Z,17.83
2022-12-07T00:44:02.566Z,18.92
2022-12-07T00:46:30.661Z,18.83
2022-12-07T00:48:58.738Z,19.38
2022-12-07T00:51:27.353Z,19.15
2022-12-07T00:53:56.790Z,18.73
2022-12-07T00:56:26.136Z,18.98
2022-12-07T00:58:55.580Z,19.23
2022-12-07T01:01:24.297Z,18.90
2022-12-07T01:03:52.330Z,18.33
2022-12-07T01:06:22.160Z,17.30
2022-12-07T01:08:51.069Z,20.70
2022-12-07T01:11:22.643Z,20.35
2022-12-07T01:13:52.676Z,17.75
2022-12-07T01:16:21.814Z,19.80
2022-12-07T01:18:50.676Z,19.63
2022-12-07T01:21:21.884Z,17.05
2022-12-07T01:23:50.440Z,18.50
2022-12-07T01:26:22.452Z,17.73
2022-12-07T01:28:50.899Z,19.27
2022-12-07T01:31:21.600Z,17.23
2022-12-07T01:33:51.310Z,17.42
2022-12-07T01:36:21.712Z,18.90
2022-12-07T01:38:52.690Z,17.95
2022-12-07T01:41:23.217Z,19.15
2022-12-07T01:44:12.529Z,17.70
2022-12-07T01:46:41.538Z,19.92
2022-12-07T01:49:12.542Z,19.73
2022-12-07T01:51:42.658Z,20.35
2022-12-07T01:54:13.960Z,19.33
2022-12-07T01:56:46.492Z,19.88
2022-12-07T01:59:15.570Z,18.60
2022-12-07T02:01:43.550Z,18.67
2022-12-07T02:04:16.480Z,18.77
2022-12-07T02:06:45.806Z,20.25
2022-12-07T02:09:14.317Z,18.45
2022-12-07T02:11:44.055Z,18.05
2022-12-07T02:14:12.052Z,17.45
2022-12-07T02:16:50.169Z,17.20
2022-12-07T02:19:49.611Z,16.08
2022-12-07T02:22:49.965Z,16.00
2022-12-07T02:25:33.088Z,17.20
2022-12-07T02:28:06.884Z,17.13
2022-12-07T02:30:41.586Z,16.67
2022-12-07T02:33:15.626Z,17.73
2022-12-07T02:35:46.860Z,16.33
2022-12-07T02:38:18.317Z,15.73
2022-12-07T02:40:52.103Z,17.40
2022-12-07T02:43:25.342Z,17.25
2022-12-07T02:45:58.107Z,16.70
2022-12-07T02:48:28.165Z,17.27
2022-12-07T02:50:57.204Z,17.85
2022-12-07T02:53:32.705Z,17.13
2022-12-07T02:56:01.995Z,16.50
2022-12-07T02:58:41.609Z,15.45
2022-12-07T03:01:22.451Z,16.27
2022-12-07T03:04:00.480Z,16.58
2022-12-07T03:06:32.531Z,16.52
2022-12-07T03:09:14.305Z,15.48
2022-12-07T03:11:49.638Z,16.95
2022-12-07T03:14:21.914Z,17.00
2022-12-07T03:16:58.141Z,16.70
2022-12-07T03:19:28.003Z,16.98
2022-12-07T03:21:58.820Z,17.30
2022-12-07T03:24:30.244Z,17.48
2022-12-07T03:27:04.426Z,18.90
2022-12-07T03:29:36.473Z,19.95
2022-12-07T03:32:11.028Z,17.85
2022-12-07T03:34:48.032Z,18.65
2022-12-07T03:37:25.279Z,15.98
2022-12-07T03:40:04.295Z,17.27
2022-12-07T03:42:34.939Z,17.00
2022-12-07T03:45:04.266Z,15.85
2022-12-07T03:47:37.506Z,18.98
2022-12-07T03:50:11.208Z,18.48
2022-12-07T03:52:42.956Z,17.30
2022-12-07T03:55:16.905Z,17.45
2022-12-07T03:57:47.051Z,18.25
2022-12-07T04:00:15.993Z,17.80
2022-12-07T04:02:45.386Z,19.52
2022-12-07T04:05:18.002Z,16.38
2022-12-07T04:07:46.383Z,17.98
2022-12-07T04:10:14.740Z,17.38
2022-12-07T04:12:42.761Z,16.90
2022-12-07T04:15:11.521Z,17.75
2022-12-07T04:17:39.506Z,16.77
2022-12-07T04:20:10.764Z,16.88
2022-12-07T04:22:38.737Z,17.38
2022-12-07T04:25:07.725Z,17.17
2022-12-07T04:27:35.709Z,17.60
2022-12-07T04:30:04.039Z,18.23
2022-12-07T04:32:32.421Z,16.55
2022-12-07T04:35:00.427Z,14.88
2022-12-07T04:37:29.750Z,16.67
2022-12-07T04:39:57.754Z,15.85
2022-12-07T04:42:25.732Z,15.88
2022-12-07T04:44:53.742Z,15.75
2022-12-07T04:47:21.706Z,16.27
2022-12-07T04:49:49.730Z,17.98
2022-12-07T04:52:19.713Z,16.23
2022-12-07T04:54:49.085Z,18.15
2022-12-07T04:57:17.112Z,16.25
2022-12-07T04:59:47.121Z,16.60
2022-12-07T05:02:15.143Z,18.52
2022-12-07T05:04:43.154Z,18.60
2022-12-07T05:07:11.143Z,18.55
2022-12-07T05:09:39.116Z,18.75
2022-12-07T05:12:08.465Z,18.02
2022-12-07T05:14:36.425Z,20.60
2022-12-07T05:17:05.192Z,17.20
2022-12-07T05:19:33.311Z,17.65
2022-12-07T05:22:01.349Z,16.58
2022-12-07T05:24:29.323Z,17.83
2022-12-07T05:26:57.253Z,18.65
2022-12-07T05:29:26.631Z,18.92
2022-12-07T05:31:54.641Z,20.35
2022-12-07T05:34:22.721Z,18.75
2022-12-07T05:36:51.461Z,18.50
2022-12-07T05:39:19.435Z,18.30
2022-12-07T05:42:04.971Z,17.80
2022-12-07T05:44:34.389Z,18.00
2022-12-07T05:47:02.308Z,18.73
2022-12-07T05:49:30.339Z,17.75
2022-12-07T05:52:00.627Z,17.50
2022-12-07T05:54:28.759Z,18.42
2022-12-07T05:56:57.036Z,16.73
2022-12-07T05:59:24.482Z,18.20
2022-12-07T06:01:54.853Z,20.20
2022-12-07T06:04:23.958Z,26.13
2022-12-07T06:06:51.915Z,26.55
2022-12-07T06:09:21.259Z,29.30
2022-12-07T06:12:06.967Z,23.48
2022-12-07T06:14:35.486Z,25.10
2022-12-07T06:17:05.104Z,23.67
2022-12-07T06:19:33.335Z,23.92
2022-12-07T06:22:01.807Z,22.20
2022-12-07T06:24:29.851Z,26.05
2022-12-07T06:26:57.865Z,25.13
2022-12-07T06:29:25.982Z,26.23
2022-12-07T06:31:54.161Z,26.95
2022-12-07T06:34:25.181Z,28.70
2022-12-07T06:36:55.955Z,27.02
2022-12-07T06:39:27.311Z,26.42
2022-12-07T06:41:55.369Z,26.45
2022-12-07T06:44:24.891Z,25.08
2022-12-07T06:47:06.730Z,22.58
2022-12-07T06:49:43.086Z,22.02
2022-12-07T06:52:11.133Z,21.38
2022-12-07T06:54:39.207Z,21.92
2022-12-07T06:57:07.179Z,20.58
2022-12-07T06:59:35.507Z,19.77
2022-12-07T07:02:04.036Z,22.00
2022-12-07T07:04:32.313Z,22.85
2022-12-07T07:07:01.705Z,24.27
2022-12-07T07:09:29.785Z,25.65
2022-12-07T07:11:57.727Z,24.98
2022-12-07T07:14:25.748Z,21.73
2022-12-07T07:16:54.293Z,20.30
2022-12-07T07:19:22.707Z,21.15
2022-12-07T07:21:50.819Z,19.83
2022-12-07T07:24:20.326Z,20.00
2022-12-07T07:26:48.688Z,19.17
2022-12-07T07:29:16.790Z,19.00
2022-12-07T07:31:44.837Z,19.38
2022-12-07T07:34:13.115Z,19.17
2022-12-07T07:36:41.180Z,17.95
2022-12-07T07:39:09.183Z,19.60
2022-12-07T07:41:38.630Z,18.95
2022-12-07T07:44:13.662Z,18.00
2022-12-07T07:46:41.784Z,18.25
2022-12-07T07:49:11.385Z,15.98
2022-12-07T07:51:39.412Z,16.48
2022-12-07T07:54:07.463Z,16.73
2022-12-07T07:56:35.433Z,17.70
2022-12-07T07:59:04.981Z,18.00
2022-12-07T08:01:33.003Z,17.80
2022-12-07T08:04:01.175Z,19.05
2022-12-07T08:06:32.163Z,16.75
2022-12-07T08:09:00.875Z,18.25
2022-12-07T08:11:28.937Z,16.52
2022-12-07T08:13:57.029Z,17.42
2022-12-07T08:16:26.563Z,16.98
2022-12-07T08:18:54.700Z,17.52
2022-12-07T08:21:23.301Z,18.00
2022-12-07T08:23:51.283Z,18.05
2022-12-07T08:26:19.364Z,15.82
2022-12-07T08:28:47.514Z,17.38
2022-12-07T08:31:17.675Z,17.88
2022-12-07T08:33:48.991Z,18.15
2022-12-07T08:36:17.817Z,18.45
2022-12-07T08:39:08.011Z,18.20
2022-12-07T08:41:34.484Z,17.63
2022-12-07T08:44:02.583Z,18.92
2022-12-07T08:46:35.684Z,19.40
2022-12-07T08:49:08.111Z,19.60
2022-12-07T08:51:36.808Z,21.02
2022-12-07T08:54:08.835Z,20.58
2022-12-07T08:56:37.552Z,21.73
2022-12-07T08:59:06.333Z,21.35
2022-12-07T09:01:37.078Z,20.25
2022-12-07T09:04:06.733Z,19.88
2022-12-07T09:06:35.564Z,18.45
2022-12-07T09:09:06.657Z,19.35
2022-12-07T09:11:34.649Z,18.00
2022-12-07T09:14:03.058Z,15.07
2022-12-07T09:16:31.143Z,14.48
2022-12-07T09:18:59.352Z,12.30
2022-12-07T09:21:28.783Z,13.63
2022-12-07T09:23:56.888Z,14.18
2022-12-07T09:26:24.926Z,12.57
2022-12-07T09:28:53.056Z,13.32
2022-12-07T09:31:23.916Z,12.90
2022-12-07T09:33:56.405Z,10.32
2022-12-07T09:36:24.660Z,10.98
2022-12-07T09:38:54.067Z,7.35
2022-12-07T09:41:23.487Z,9.73
2022-12-07T09:43:52.586Z,11.40
2022-12-07T09:46:23.425Z,11.88
2022-12-07T09:48:52.766Z,9.55
2022-12-07T09:51:25.027Z,11.52
2022-12-07T09:53:58.392Z,10.93
2022-12-07T09:56:26.757Z,9.15
2022-12-07T09:59:01.726Z,9.85
2022-12-07T10:01:32.571Z,10.15
2022-12-07T10:04:12.019Z,10.60
2022-12-07T10:06:40.091Z,6.28
2022-12-07T10:09:14.255Z,10.07
2022-12-07T10:12:02.772Z,12.10
2022-12-07T10:15:05.822Z,9.88
2022-12-07T10:17:33.042Z,10.05
2022-12-07T10:20:20.553Z,9.02
2022-12-07T10:23:00.777Z,9.23
2022-12-07T10:25:34.075Z,9.13
2022-12-07T10:28:04.519Z,8.80
2022-12-07T10:30:34.333Z,9.23
2022-12-07T10:33:02.401Z,8.98
2022-12-07T10:35:31.938Z,8.70
2022-12-07T10:38:01.839Z,9.27
2022-12-07T10:40:35.312Z,8.43
2022-12-07T10:43:06.045Z,7.50
2022-12-07T10:45:46.933Z,7.78
2022-12-07T10:48:32.731Z,8.30
2022-12-07T10:51:11.336Z,9.77
2022-12-07T10:53:55.786Z,9.60
2022-12-07T10:56:53.008Z,8.65
2022-12-07T10:59:42.828Z,9.25
2022-12-07T11:02:28.368Z,9.30
2022-12-07T11:05:06.361Z,8.73
2022-12-07T11:07:43.829Z,8.48
2022-12-07T11:10:20.111Z,9.13
2022-12-07T11:13:01.264Z,8.35
2022-12-07T11:15:38.122Z,9.38
2022-12-07T11:18:13.161Z,9.32
2022-12-07T11:20:47.699Z,9.77
2022-12-07T11:23:27.922Z,13.55
2022-12-07T11:26:05.364Z,22.48
2022-12-07T11:28:55.287Z,22.23
2022-12-07T11:31:30.949Z,12.10
2022-12-07T11:34:05.737Z,12.48
2022-12-07T11:36:40.531Z,22.80
2022-12-07T11:39:18.583Z,22.38
2022-12-07T11:41:49.623Z,10.82
2022-12-07T11:44:28.562Z,13.90
2022-12-07T11:47:02.320Z,8.38
2022-12-07T11:49:42.724Z,8.23
2022-12-07T11:52:20.566Z,8.63
2022-12-07T11:54:52.142Z,8.98
2022-12-07T12:42:49.530Z,7.85
2022-12-07T12:45:23.202Z,9.57
2022-12-07T12:48:01.901Z,9.77
2022-12-07T12:50:33.176Z,9.77
2022-12-07T12:53:15.138Z,9.65
2022-12-07T12:56:29.915Z,9.68
2022-12-07T12:59:27.301Z,9.95
2022-12-07T13:01:58.424Z,11.50
2022-12-07T13:04:41.788Z,11.70
2022-12-07T13:07:42.986Z,10.88
2022-12-07T13:10:25.276Z,11.00
2022-12-07T13:13:00.139Z,10.80
2022-12-07T13:15:37.994Z,11.18
2022-12-07T13:18:25.869Z,10.73
2022-12-07T13:20:58.951Z,11.90
2022-12-07T13:23:31.318Z,12.60
2022-12-07T13:26:11.552Z,13.43
2022-12-07T13:28:46.502Z,15.63
2022-12-07T13:31:25.678Z,28.35
2022-12-07T13:33:53.808Z,23.02
2022-12-07T13:36:25.074Z,17.80
2022-12-07T13:38:59.059Z,18.80
2022-12-07T13:41:30.437Z,24.27
2022-12-07T13:44:04.084Z,17.42
2022-12-07T13:46:45.733Z,12.25
2022-12-07T13:49:23.570Z,12.25
2022-12-07T14:56:21.719Z,12.85
2022-12-07T14:58:50.220Z,10.82
2022-12-07T15:01:19.341Z,11.68
2022-12-07T15:03:47.578Z,11.45
2022-12-07T15:06:18.542Z,10.57
2022-12-07T15:08:47.099Z,10.15
2022-12-07T15:11:16.293Z,11.90
2022-12-07T15:14:03.368Z,11.23
2022-12-07T15:16:52.322Z,9.70
2022-12-07T15:19:28.532Z,9.38
2022-12-07T15:21:58.096Z,10.38
2022-12-07T15:24:26.666Z,10.55
2022-12-07T15:26:54.754Z,11.27
2022-12-07T15:29:25.256Z,9.85
2022-12-07T15:31:57.125Z,10.57
2022-12-07T15:34:27.685Z,9.50
2022-12-07T15:36:55.941Z,11.00
2022-12-07T15:39:24.056Z,12.75
2022-12-07T15:41:52.176Z,14.48
2022-12-07T15:44:37.848Z,14.25
2022-12-07T15:47:07.736Z,11.25
2022-12-07T15:49:36.009Z,13.32
2022-12-07T15:52:04.145Z,10.77
2022-12-07T15:54:33.311Z,15.18
2022-12-07T15:57:01.702Z,16.23
2022-12-07T15:59:31.911Z,21.50
2022-12-07T16:02:00.120Z,12.00
2022-12-07T16:04:31.441Z,13.38
2022-12-07T16:07:00.060Z,22.38
2022-12-07T16:09:28.141Z,24.88
2022-12-07T16:12:00.978Z,39.53
2022-12-07T16:14:30.182Z,47.10
2022-12-07T16:17:59.343Z,47.28
2022-12-07T16:28:53.415Z,48.13
2022-12-07T16:35:33.662Z,29.48
2022-12-07T16:42:34.611Z,15.00
2022-12-07T17:09:38.337Z,12.75
2022-12-07T17:16:18.712Z,14.95
2022-12-07T17:24:01.137Z,15.05
2022-12-07T17:26:35.942Z,12.32
2022-12-07T17:29:05.952Z,13.43
2022-12-07T17:31:34.530Z,14.13
2022-12-07T17:34:04.087Z,14.75
2022-12-07T17:36:33.684Z,15.15
2022-12-07T17:39:03.720Z,15.38
2022-12-07T17:41:57.635Z,14.07
2022-12-07T17:44:26.964Z,13.55
2022-12-07T17:47:32.186Z,13.55
2022-12-07T17:50:06.725Z,13.20
2022-12-07T17:56:40.371Z,13.85
2022-12-07T17:59:09.210Z,13.20
2022-12-07T18:01:39.211Z,13.13
2022-12-07T18:04:21.693Z,11.77
2022-12-07T18:06:54.143Z,13.23
2022-12-07T18:09:26.355Z,13.90
2022-12-07T18:12:03.872Z,14.15
2022-12-07T18:14:33.063Z,15.32
2022-12-07T18:17:55.706Z,15.73
2022-12-07T18:20:24.882Z,14.73
2022-12-07T18:23:00.943Z,14.60
2022-12-07T18:25:31.055Z,14.35
2022-12-07T18:28:25.542Z,15.50
2022-12-07T18:31:14.773Z,17.13
2022-12-07T18:37:16.840Z,18.02
2022-12-07T18:40:12.077Z,23.08
2022-12-07T18:42:40.199Z,22.42
2022-12-07T18:45:12.977Z,36.65
2022-12-07T18:47:44.161Z,35.60
2022-12-07T18:50:12.298Z,34.67
2022-12-07T18:52:48.157Z,42.33
2022-12-07T18:55:19.686Z,39.50
2022-12-07T18:57:48.055Z,39.30
2022-12-07T19:00:18.815Z,37.00
2022-12-07T19:02:47.660Z,37.92
2022-12-07T19:05:16.045Z,35.88
2022-12-07T19:07:44.515Z,36.33
2022-12-07T19:10:15.648Z,40.45
2022-12-07T19:12:45.005Z,41.65
2022-12-07T19:15:15.336Z,38.63
2022-12-07T19:17:45.389Z,35.33
2022-12-07T19:20:16.282Z,33.42
2022-12-07T19:22:44.436Z,32.25
2022-12-07T19:25:12.550Z,36.10
2022-12-07T19:27:41.090Z,32.22
2022-12-07T19:30:13.620Z,38.15
2022-12-07T19:32:41.963Z,51.90
2022-12-07T19:35:11.816Z,57.97
2022-12-07T19:37:39.925Z,65.28
2022-12-07T19:40:09.256Z,54.33
2022-12-07T19:42:37.408Z,48.88
2022-12-07T19:45:06.492Z,47.95
2022-12-07T19:47:34.799Z,43.20
2022-12-07T19:50:02.991Z,39.47
2022-12-07T19:52:36.669Z,36.00
2022-12-07T19:55:06.467Z,35.55
2022-12-07T19:57:36.838Z,32.67
2022-12-07T20:00:06.243Z,33.65
2022-12-07T20:02:34.312Z,38.08
2022-12-07T20:05:06.115Z,40.97
2022-12-07T20:07:39.231Z,43.55
2022-12-07T20:10:10.271Z,41.78
2022-12-07T20:12:55.648Z,44.17
2022-12-07T20:15:23.892Z,42.25
2022-12-07T20:17:52.075Z,41.97
2022-12-07T20:20:20.744Z,42.92
2022-12-07T20:22:52.623Z,44.30
2022-12-07T20:25:21.752Z,41.30
2022-12-07T20:27:49.831Z,44.45
2022-12-07T20:30:20.225Z,51.38
2022-12-07T20:32:50.376Z,50.63
2022-12-07T20:35:18.530Z,47.75
2022-12-07T20:37:47.624Z,54.85
2022-12-07T20:40:17.172Z,72.60
2022-12-07T20:42:45.307Z,75.80
2022-12-07T20:45:13.451Z,64.18
2022-12-07T20:47:43.472Z,39.95
2022-12-07T20:50:16.079Z,36.03
2022-12-07T20:52:44.154Z,36.88
2022-12-07T20:55:14.763Z,31.08
2022-12-07T20:57:44.280Z,26.27
2022-12-07T21:00:13.029Z,29.45
2022-12-07T21:02:42.351Z,37.30
2022-12-07T21:05:11.048Z,59.83
2022-12-07T21:07:40.254Z,58.88
2022-12-07T21:10:09.451Z,55.80
2022-12-07T21:12:37.637Z,53.58
2022-12-07T21:15:09.534Z,45.30
2022-12-07T21:17:37.643Z,32.42
2022-12-07T21:20:06.599Z,27.77
2022-12-07T21:22:34.634Z,32.28
2022-12-07T21:25:03.054Z,33.88
2022-12-07T21:27:31.403Z,27.13
2022-12-07T21:29:59.480Z,29.77
2022-12-07T21:32:28.992Z,32.30
2022-12-07T21:34:59.074Z,34.53
2022-12-07T21:37:27.112Z,35.33
2022-12-07T21:39:55.179Z,46.45
2022-12-07T21:42:23.456Z,55.88
2022-12-07T21:44:52.479Z,49.63
2022-12-07T21:47:21.695Z,41.72
2022-12-07T21:49:51.290Z,37.47
2022-12-07T21:52:21.487Z,39.45
2022-12-07T21:54:52.445Z,39.88
2022-12-07T21:57:20.505Z,38.45
2022-12-07T21:59:55.532Z,35.20
2022-12-07T22:02:23.694Z,31.97
2022-12-07T22:04:55.340Z,36.15
2022-12-07T22:07:28.672Z,46.75
2022-12-07T22:09:59.705Z,52.03
2022-12-07T22:12:27.761Z,48.55
2022-12-07T22:15:17.904Z,51.25
2022-12-07T22:18:14.387Z,45.33
2022-12-07T22:20:57.663Z,38.28
2022-12-07T22:23:25.984Z,39.47
2022-12-07T22:26:06.612Z,42.13
2022-12-07T22:28:41.502Z,40.92
2022-12-07T22:31:25.012Z,44.78
2022-12-07T22:33:59.130Z,40.55
2022-12-07T22:36:29.516Z,39.75
2022-12-07T22:39:02.277Z,41.90
2022-12-07T22:41:32.930Z,41.03
2022-12-07T22:44:50.973Z,38.55
2022-12-07T22:47:44.147Z,39.92
2022-12-07T22:50:36.960Z,39.53
2022-12-07T22:53:12.215Z,39.55
2022-12-07T22:55:40.620Z,40.17
2022-12-07T22:58:14.740Z,39.63
2022-12-07T23:00:53.826Z,40.95
2022-12-07T23:03:21.949Z,40.90
2022-12-07T23:05:50.745Z,41.67
2022-12-07T23:08:20.172Z,41.08
2022-12-07T23:10:49.911Z,37.45
2022-12-07T23:13:35.688Z,36.50
2022-12-07T23:16:11.012Z,36.35
2022-12-07T23:18:40.661Z,27.52
2022-12-07T23:21:10.119Z,23.60
2022-12-07T23:23:39.532Z,21.58
2022-12-07T23:26:10.382Z,20.10
2022-12-07T23:28:39.448Z,18.73
2022-12-07T23:31:09.376Z,19.88
2022-12-07T23:33:38.547Z,19.65
2022-12-07T23:36:10.105Z,18.13
2022-12-07T23:38:46.288Z,18.25
2022-12-07T23:41:20.115Z,19.05
2022-12-07T23:43:48.810Z,22.48
2022-12-07T23:46:18.796Z,20.73
2022-12-07T23:48:48.049Z,22.80
2022-12-07T23:51:16.822Z,21.95
2022-12-07T23:53:49.936Z,22.77
2022-12-07T23:56:19.376Z,22.67
2022-12-07T23:58:47.745Z,23.42
